Latest Weather Observations for Evans Head

IDN60801

Issued at 4:52 pm EDT Tuesday 23 October 2018 (issued every 10 minutes, with the page automatically refreshed every 10 minutes)

About weather observations | Map of weather stations | Latest weather observations for NSW | Other Formats
Station Details ID: 058212 Name: EVANS HEAD RAAF BOMBING RANGE AWS Lat: -29.18 Lon: 153.40 Height: 62.5 m
Data from the previous 72 hours. | See also: Recent months at Evans Head
Date/Time
EDT
Temp
°C
App
Temp
°C
Dew
Point
°C
Rel
Hum
%
Delta-T
°C
Wind Press
QNH
hPa
Press
MSL
hPa
Rain since
9am
mm
Dir  Spd
km/h
Gust
km/h
Spd
kts
Gust
kts
23/04:30pm 23.5 22.3 18.4 73 3.2 NE 22 32 12 17 1013.5 1013.2 0.0
23/04:00pm 23.7 22.3 18.8 74 3.1 ENE 24 32 13 17 1013.7 1013.4 0.0
23/03:30pm 24.6 24.6 19.7 74 3.2 NE 19 30 10 16 1014.0 1013.8 0.0
23/03:00pm 24.7 24.6 19.5 73 3.3 ENE 19 30 10 16 1014.1 1013.9 0.0
23/02:30pm 23.8 22.4 18.7 73 3.2 ENE 24 32 13 17 1014.5 1014.3 0.0
23/02:00pm 23.7 21.7 17.4 68 3.9 ENE 24 30 13 16 1015.0 1014.8 0.0
23/01:30pm 24.5 23.3 17.0 63 4.6 ENE 19 26 10 14 1015.3 1015.1 0.0
23/01:00pm 24.6 23.9 18.3 68 4.0 E 19 28 10 15 1015.6 1015.4 0.0
23/12:30pm 24.0 22.6 17.0 65 4.3 E 20 26 11 14 1015.9 1015.7 0.0
23/12:00pm 24.4 23.9 17.9 67 4.1 E 17 24 9 13 1016.3 1016.1 0.0
23/11:30am 24.1 23.9 17.6 67 4.1 E 15 19 8 10 1016.6 1016.4 0.0
23/11:00am 24.5 25.1 18.7 70 3.7 SE 13 19 7 10 1017.0 1016.8 0.0
23/10:30am 24.7 25.8 18.9 70 3.7 E 11 17 6 9 1017.2 1017.0 0.0
23/10:00am 23.5 24.5 17.7 70 3.6 E 9 15 5 8 1017.3 1017.1 0.0
23/09:30am 23.3 24.7 17.7 71 3.5 NNW 7 11 4 6 1017.3 1017.1 0.0
23/09:00am 22.0 22.6 15.4 66 3.9 W 6 9 3 5 1017.4 1017.2 0.2
23/08:30am 21.2 22.7 18.0 82 2.0 W 7 11 4 6 1017.3 1017.1 0.2
23/08:00am 20.2 21.2 17.8 86 1.5 W 9 11 5 6 1017.2 1017.0 0.2
23/07:30am 19.1 20.6 17.6 91 0.9 WSW 6 9 3 5 1017.1 1016.9 0.2
23/07:00am 18.3 19.0 17.0 92 0.8 WSW 9 13 5 7 1016.8 1016.6 0.2
23/06:30am 17.7 18.0 16.9 95 0.5 WSW 11 11 6 6 1016.3 1016.1 0.2
23/06:00am 17.3 17.4 16.5 95 0.5 WSW 11 13 6 7 1016.0 1015.8 0.2
23/05:30am 17.2 17.3 16.4 95 0.5 WSW 11 15 6 8 1015.7 1015.5 0.2
23/05:00am 17.4 17.2 16.6 95 0.5 WSW 13 15 7 8 1015.6 1015.4 0.2
23/04:30am 17.4 17.2 16.6 95 0.5 WSW 13 15 7 8 1015.5 1015.3 0.2
23/04:00am 17.6 17.4 16.8 95 0.5 WSW 13 17 7 9 1015.4 1015.2 0.0
23/03:30am 17.6 17.8 16.8 95 0.5 W 11 13 6 7 1015.4 1015.2 0.0
23/03:00am 17.6 17.8 16.8 95 0.5 W 11 13 6 7 1015.7 1015.5 0.0
23/02:30am 17.7 17.6 16.9 95 0.5 WSW 13 15 7 8 1015.9 1015.7 0.0
23/02:00am 17.8 18.1 17.0 95 0.5 WSW 11 15 6 8 1016.2 1016.0 0.0
23/01:30am 18.0 17.9 17.0 94 0.6 WSW 13 15 7 8 1016.5 1016.3 0.0
23/01:00am 18.1 18.5 17.3 95 0.5 WSW 11 13 6 7 1016.7 1016.5 0.0
23/12:30am 17.8 18.4 16.8 94 0.6 WSW 9 13 5 7 1017.0 1016.8 0.0
23/12:00am 18.3 18.7 17.3 94 0.6 WSW 11 13 6 7 1017.1 1016.9 0.0
 
Date/Time
EDT
Temp
°C
App
Temp
°C
Dew
Point
°C
Rel
Hum
%
Delta-T
°C
Wind Press
QNH
hPa
Press
MSL
hPa
Rain since
9am
mm
Dir  Spd
km/h
Gust
km/h
Spd
kts
Gust
kts
22/11:30pm 18.6 19.8 16.9 90 1.0 SW 6 7 3 4 1017.3 1017.1 0.0
22/11:00pm 19.1 19.7 17.6 91 0.9 SE 11 15 6 8 1017.3 1017.1 0.0
22/10:30pm 19.1 19.6 17.4 90 1.0 SE 11 13 6 7 1017.3 1017.1 0.0
22/10:00pm 19.3 19.8 17.4 89 1.2 SE 11 13 6 7 1017.5 1017.3 0.0
22/09:30pm 19.5 19.5 17.3 87 1.3 SE 13 15 7 8 1017.4 1017.2 0.0
22/09:00pm 19.6 19.7 17.4 87 1.3 SE 13 15 7 8 1017.4 1017.2 0.0
22/08:30pm 19.6 19.6 17.2 86 1.5 SE 13 17 7 9 1017.1 1016.9 0.0
22/08:00pm 19.9 20.4 17.5 86 1.5 SE 11 17 6 9 1016.7 1016.5 0.0
22/07:30pm 20.0 20.3 17.8 87 1.4 SE 13 19 7 10 1016.4 1016.2 0.0
22/07:00pm 20.2 19.9 17.4 84 1.7 SE 15 20 8 11 1016.0 1015.8 0.0
22/06:30pm 20.8 20.2 17.6 82 2.0 SE 17 22 9 12 1015.7 1015.5 0.0
22/06:00pm 21.5 21.4 17.9 80 2.2 SE 15 20 8 11 1015.4 1015.2 0.0
22/05:30pm 22.0 21.6 18.0 78 2.5 SSE 17 24 9 13 1015.2 1015.0 0.0
22/05:00pm 22.2 21.7 17.8 76 2.7 SSE 17 24 9 13 1015.1 1014.9 0.0
22/04:30pm 22.7 22.4 18.3 76 2.8 SE 17 24 9 13 1015.1 1014.9 0.0
22/04:00pm 22.4 21.5 18.2 77 2.6 SE 20 32 11 17 1015.1 1014.9 0.0
22/03:30pm 23.1 21.7 18.8 77 2.7 SSE 24 32 13 17 1015.2 1015.0 0.0
22/03:00pm 23.1 21.8 19.1 78 2.5 SSE 24 33 13 18 1015.3 1015.1 0.0
22/02:30pm 22.6 20.4 17.9 75 2.9 SSE 26 35 14 19 1015.4 1015.2 0.0
22/02:00pm 23.3 21.1 18.6 75 3.0 SSE 28 37 15 20 1015.6 1015.4 0.0
22/01:30pm 23.2 20.6 19.4 79 2.4 SSE 32 43 17 23 1015.9 1015.7 0.0
22/01:00pm 22.9 20.3 18.7 77 2.7 SSE 30 41 16 22 1016.1 1015.9 0.0
22/12:30pm 23.0 20.0 18.7 77 2.7 SSE 32 41 17 22 1016.3 1016.1 0.0
22/12:00pm 23.0 20.9 19.0 78 2.5 S 28 41 15 22 1016.5 1016.3 0.0
22/11:30am 23.1 20.9 19.5 80 2.3 S 30 43 16 23 1016.7 1016.5 0.0
22/11:00am 22.3 19.4 18.9 81 2.2 SSE 32 43 17 23 1016.9 1016.7 0.0
22/10:30am 21.8 18.4 17.6 77 2.6 SSE 32 44 17 24 1016.9 1016.7 0.0
22/10:00am 22.7 20.1 18.7 78 2.5 S 30 43 16 23 1016.8 1016.6 0.0
22/09:30am 22.3 21.1 18.5 79 2.4 S 22 32 12 17 1016.8 1016.6 0.0
22/09:00am 21.3 20.4 18.1 82 2.0 S 20 33 11 18 1016.5 1016.3 18.8
22/08:30am 20.0 19.0 17.6 86 1.5 SSW 19 28 10 15 1016.1 1015.9 18.8
22/08:00am 19.2 18.5 17.3 89 1.2 SSW 17 28 9 15 1015.8 1015.6 18.8
22/07:30am 18.5 17.6 16.8 90 1.0 SW 17 24 9 13 1015.7 1015.5 18.8
22/07:00am 17.8 17.1 16.5 92 0.8 SW 15 20 8 11 1015.5 1015.3 18.8
22/06:30am 17.2 16.4 16.1 93 0.7 SW 15 22 8 12 1015.3 1015.1 18.8
22/06:00am 17.0 16.2 16.0 94 0.6 SW 15 20 8 11 1014.9 1014.7 18.8
22/05:30am 17.1 15.9 16.1 94 0.6 SW 17 20 9 11 1014.5 1014.3 18.8
22/05:00am 17.4 16.7 16.3 93 0.7 SW 15 22 8 12 1014.4 1014.2 18.8
22/04:30am 17.4 17.0 16.3 93 0.7 SW 13 20 7 11 1014.4 1014.2 18.8
22/04:00am 17.6 16.9 16.5 93 0.7 SW 15 19 8 10 1014.3 1014.1 18.8
22/03:30am 17.6 16.9 16.5 93 0.7 SW 15 19 8 10 1014.4 1014.2 18.8
22/03:00am 17.5 17.6 16.5 94 0.6 WSW 11 17 6 9 1014.5 1014.3 18.8
22/02:30am 17.5 18.0 16.5 94 0.6 WSW 9 13 5 7 1014.6 1014.4 18.8
22/02:00am 17.7 17.5 16.7 94 0.6 WSW 13 17 7 9 1014.6 1014.4 18.8
22/01:30am 17.8 17.7 17.0 95 0.5 WSW 13 17 7 9 1014.8 1014.6 18.8
22/01:00am 18.0 18.0 17.2 95 0.5 SW 13 20 7 11 1015.1 1014.9 18.8
22/12:30am 18.2 18.4 17.6 96 0.4 SW 13 17 7 9 1015.6 1015.4 18.8
22/12:00am 18.3 18.5 17.7 96 0.4 SW 13 19 7 10 1015.6 1015.4 18.8
 
Date/Time
EDT
Temp
°C
App
Temp
°C
Dew
Point
°C
Rel
Hum
%
Delta-T
°C
Wind Press
QNH
hPa
Press
MSL
hPa
Rain since
9am
mm
Dir  Spd
km/h
Gust
km/h
Spd
kts
Gust
kts
21/11:30pm 18.3 18.9 17.7 96 0.4 WSW 11 15 6 8 1015.7 1015.5 18.8
21/11:00pm 18.3 18.5 17.7 96 0.4 SW 13 17 7 9 1015.6 1015.4 18.8
21/10:30pm 18.4 19.3 17.6 95 0.5 SW 9 13 5 7 1015.5 1015.3 18.8
21/10:00pm 18.0 17.6 17.2 95 0.5 SW 15 19 8 10 1015.5 1015.3 18.6
21/09:30pm 17.2 16.4 16.2 94 0.6 WSW 15 19 8 10 1015.2 1015.0 18.2
21/09:00pm 17.2 17.5 15.9 92 0.8 WSW 9 15 5 8 1015.2 1015.0 17.8
21/08:30pm 17.9 17.8 16.9 94 0.6 WSW 13 20 7 11 1015.6 1015.4 14.2
21/08:00pm 18.6 19.5 17.6 94 0.6 W 9 15 5 8 1014.9 1014.7 11.0
21/07:30pm 18.8 19.7 17.6 93 0.7 SSE 9 13 5 7 1014.4 1014.2 9.8
21/07:00pm 18.8 18.2 16.6 87 1.3 W 15 32 8 17 1013.7 1013.4 8.8
21/06:30pm 20.5 22.0 18.8 90 1.1 ESE 9 11 5 6 1013.3 1013.0 0.2
21/06:00pm 20.8 21.3 18.4 86 1.5 ENE 13 19 7 10 1012.8 1012.6 0.0
21/05:30pm 21.1 22.0 18.3 84 1.7 ENE 11 17 6 9 1012.6 1012.4 0.0
21/05:00pm 21.4 22.2 18.2 82 2.0 E 11 17 6 9 1012.1 1011.9 0.0
21/04:30pm 21.5 21.0 17.9 80 2.2 E 17 22 9 12 1011.6 1011.4 0.0
21/04:00pm 23.1 22.7 18.0 73 3.2 ESE 17 24 9 13 1011.4 1011.2 0.0
21/03:30pm 23.4 23.1 18.3 73 3.2 ESE 17 24 9 13 1011.4 1011.2 0.0
21/03:00pm 23.1 22.5 17.6 71 3.4 ESE 17 22 9 12 1011.7 1011.5 0.0
21/02:30pm 22.6 22.6 17.3 72 3.3 E 13 19 7 10 1012.4 1012.2 0.0
21/02:00pm 23.0 22.8 17.7 72 3.3 ESE 15 20 8 11 1012.8 1012.6 0.0
21/01:30pm 22.6 21.6 16.6 69 3.7 ESE 17 20 9 11 1013.5 1013.2 0.0
21/01:00pm 22.7 22.0 17.4 72 3.3 E 17 20 9 11 1013.9 1013.7 0.0
21/12:30pm 23.5 23.4 17.9 71 3.5 SE 15 20 8 11 1014.2 1014.0 0.0
21/12:00pm 23.7 23.2 17.9 70 3.6 SE 17 20 9 11 1014.5 1014.3 0.0
21/11:30am 24.4 25.0 17.6 66 4.3 SE 11 17 6 9 1014.6 1014.4 0.0
21/11:00am 25.2 25.6 18.2 65 4.4 SSE 13 17 7 9 1014.9 1014.7 0.0
21/10:30am 23.6 23.4 17.6 69 3.7 SSE 15 19 8 10 1015.0 1014.8 0.0
21/10:00am 23.1 22.5 17.6 71 3.4 S 17 22 9 12 1015.0 1014.8 0.0
21/09:30am 22.7 23.0 18.7 78 2.5 S 15 20 8 11 1015.1 1014.9 0.0
21/09:00am 21.6 22.0 18.2 81 2.1 SSW 13 20 7 11 1015.2 1015.0 0.6
21/08:30am 19.9 19.9 18.2 90 1.1 SSW 15 26 8 14 1015.0 1014.8 0.6
21/08:00am 19.5 19.8 17.8 90 1.0 SW 13 19 7 10 1015.2 1015.0 0.6
21/07:30am 19.4 19.9 17.5 89 1.2 W 11 17 6 9 1015.0 1014.8 0.6
21/07:04am 19.2 16.7 18.0 93 0.7 ENE 28 50 15 27 1013.8 1013.5 0.6
21/07:00am 19.2 15.4 18.0 93 0.7 E 35 50 19 27 1011.7 1011.5 0.6
21/06:51am 19.0 16.5 18.0 94 0.6 ESE 28 41 15 22 1011.2 1011.0 0.6
21/06:30am 18.4 18.4 17.2 93 0.7 E 13 19 7 10 1012.8 1012.6 0.6
21/06:00am 18.9 19.8 17.6 92 0.8 SE 9 13 5 7 1013.1 1012.9 0.2
21/05:30am 18.4 18.2 16.7 90 1.0 ESE 13 15 7 8 1012.8 1012.6 0.2
21/05:00am 18.6 19.0 16.4 87 1.3 WSW 9 9 5 5 1013.3 1013.0 0.2
21/04:30am 18.8 18.5 16.4 86 1.4 SW 13 17 7 9 1013.6 1013.3 0.2
21/04:00am 19.0 18.7 16.4 85 1.6 WSW 13 17 7 9 1014.0 1013.8 0.2
21/03:30am 18.8 19.7 17.5 92 0.8 WNW 9 20 5 11 1014.1 1013.9 0.2
21/03:00am 18.8 20.0 17.3 91 0.9 W 7 11 4 6 1014.0 1013.8 0.2
21/02:30am 19.0 19.8 17.3 90 1.0 W 9 11 5 6 1014.2 1014.0 0.2
21/02:00am 19.4 21.0 16.8 85 1.6 WSW 4 7 2 4 1014.1 1013.9 0.0
21/01:30am 19.5 20.6 17.1 86 1.5 N 7 13 4 7 1014.5 1014.3 0.0
21/01:00am 19.6 20.0 17.2 86 1.5 N 11 15 6 8 1013.9 1013.7 0.0
21/12:30am 19.6 19.6 17.2 86 1.5 N 13 20 7 11 1013.8 1013.5 0.0
21/12:00am 19.7 19.3 17.1 85 1.6 N 15 22 8 12 1013.8 1013.5 0.0
 
Date/Time
EDT
Temp
°C
App
Temp
°C
Dew
Point
°C
Rel
Hum
%
Delta-T
°C
Wind Press
QNH
hPa
Press
MSL
hPa
Rain since
9am
mm
Dir  Spd
km/h
Gust
km/h
Spd
kts
Gust
kts
20/11:30pm 19.8 18.7 17.2 85 1.6 N 19 30 10 16 1013.9 1013.7 0.0
20/11:00pm 19.7 18.4 17.3 86 1.5 N 20 32 11 17 1014.0 1013.8 0.0
20/10:30pm 19.8 18.6 17.6 87 1.4 N 20 33 11 18 1014.1 1013.9 0.0
20/10:00pm 19.9 18.7 17.5 86 1.5 N 20 35 11 19 1014.5 1014.3 0.0
20/09:30pm 20.0 18.9 17.4 85 1.6 N 19 30 10 16 1014.9 1014.7 0.0
20/09:00pm 20.3 18.6 17.3 83 1.8 N 22 35 12 19 1014.4 1014.2 0.0
20/08:30pm 20.2 18.9 17.2 83 1.8 N 20 33 11 18 1014.0 1013.8 0.0
20/08:00pm 20.2 18.5 17.2 83 1.8 N 22 35 12 19 1013.8 1013.5 0.0
20/07:30pm 20.2 18.8 17.0 82 2.0 N 20 28 11 15 1013.9 1013.7 0.0
20/07:00pm 20.4 18.6 17.0 81 2.1 N 22 37 12 20 1013.5 1013.2 0.0
20/06:30pm 20.8 18.3 17.0 79 2.3 NNE 26 44 14 24 1012.9 1012.7 0.0
20/06:00pm 21.6 19.1 17.2 76 2.7 NNE 26 43 14 23 1012.8 1012.6 0.0
20/05:30pm 22.4 20.6 17.8 75 2.9 NNE 24 43 13 23 1012.4 1012.2 0.0
20/05:00pm 22.8 20.6 16.8 69 3.7 NNE 24 43 13 23 1012.5 1012.3 0.0

Other Formats:

Comma delimited format used in spreadsheet applications
http://www.bom.gov.au/fwo/IDN60801/IDN60801.94598.axf

JavaScript Object Notation format (JSON) in row-major order
http://www.bom.gov.au/fwo/IDN60801/IDN60801.94598.json